Time;durP1;ratioP1;P1;durP2;ratioP2;P2;SDS_P1;SDS_P2;PMS_P1;PMS_P2;Temp;Humidity;BMP_temperature;BMP_pressure;BME280_temperature;BME280_humidity;BME280_pressure;Samples;Min_cycle;Max_cycle;Signal;HPM_P1;HPM_P2
2023/03/02 00:01:07;;;;;;;58.83;27.48;;;3.70;99.90;;;;;;5095911;28;20027;-69
2023/03/02 00:06:58;;;;;;;57.20;28.50;;;3.90;99.90;;;;;;5087602;28;20073;-69
2023/03/02 00:09:24;;;;;;;51.33;22.95;;;4.00;99.90;;;;;;5085680;28;20032;-68
2023/03/02 00:11:50;;;;;;;60.85;28.95;;;4.10;99.90;;;;;;5096590;28;20026;-68
2023/03/02 00:14:16;;;;;;;56.05;27.33;;;4.10;99.90;;;;;;5101545;28;20108;-68
2023/03/02 00:16:41;;;;;;;58.53;27.95;;;4.20;99.90;;;;;;5102950;28;20106;-69
2023/03/02 00:19:07;;;;;;;61.83;30.27;;;4.20;99.90;;;;;;5099331;28;20425;-69
2023/03/02 00:21:33;;;;;;;68.45;31.95;;;4.30;99.90;;;;;;5104091;28;20032;-69
2023/03/02 00:23:58;;;;;;;60.45;30.55;;;4.30;99.90;;;;;;5096072;28;20031;-69
2023/03/02 00:26:24;;;;;;;61.47;28.90;;;4.40;99.90;;;;;;5101934;28;20019;-69
2023/03/02 00:28:50;;;;;;;66.32;29.65;;;4.50;99.90;;;;;;5096584;28;20051;-69
2023/03/02 00:31:15;;;;;;;67.80;30.88;;;4.50;99.90;;;;;;5097683;28;20368;-68
2023/03/02 00:33:41;;;;;;;60.83;28.85;;;4.50;99.90;;;;;;5092236;28;20036;-68
2023/03/02 00:36:15;;;;;;;65.18;29.05;;;4.60;99.90;;;;;;5095334;28;20051;-68
2023/03/02 00:38:40;;;;;;;72.45;28.65;;;4.60;99.90;;;;;;5099438;28;20020;-68
2023/03/02 00:41:06;;;;;;;64.07;27.33;;;4.60;99.90;;;;;;5094525;28;20027;-69
2023/03/02 00:43:31;;;;;;;64.60;28.27;;;4.50;99.90;;;;;;5072814;28;20036;-69
2023/03/02 00:45:57;;;;;;;57.33;28.67;;;4.50;99.90;;;;;;5104156;28;20088;-68
2023/03/02 00:48:23;;;;;;;60.65;28.80;;;4.50;99.90;;;;;;5095804;28;20403;-69
2023/03/02 00:50:49;;;;;;;59.42;26.77;;;4.50;99.90;;;;;;5095634;28;20035;-69
2023/03/02 00:53:16;;;;;;;59.60;27.55;;;4.50;99.90;;;;;;5097561;28;20028;-69
2023/03/02 00:55:51;;;;;;;62.28;28.77;;;4.50;99.90;;;;;;5092043;28;20153;-68
2023/03/02 00:58:16;;;;;;;62.97;31.02;;;4.50;99.90;;;;;;5098887;28;20081;-69
2023/03/02 01:00:42;;;;;;;59.20;27.75;;;4.50;99.90;;;;;;5094358;28;20099;-69
2023/03/02 01:03:08;;;;;;;62.97;28.40;;;4.50;99.90;;;;;;5091354;28;20039;-69
2023/03/02 01:05:36;;;;;;;56.42;27.65;;;4.60;99.90;;;;;;5091172;28;20036;-69
2023/03/02 01:08:01;;;;;;;59.25;28.42;;;4.60;99.90;;;;;;5093869;28;20777;-70
2023/03/02 01:10:27;;;;;;;62.10;27.90;;;4.60;99.90;;;;;;5083981;28;20063;-71
2023/03/02 01:12:52;;;;;;;62.70;29.02;;;4.60;99.90;;;;;;5086951;28;20036;-72
2023/03/02 01:15:18;;;;;;;57.28;27.35;;;4.60;99.90;;;;;;5092741;28;20043;-69
2023/03/02 01:17:45;;;;;;;61.63;29.20;;;4.60;99.90;;;;;;5103873;28;20032;-69
2023/03/02 01:20:12;;;;;;;52.75;25.00;;;4.70;99.90;;;;;;5087551;28;20020;-69
2023/03/02 01:22:37;;;;;;;59.10;27.02;;;4.60;99.90;;;;;;5094977;28;20459;-69
2023/03/02 01:25:04;;;;;;;53.28;26.02;;;4.70;99.90;;;;;;5103647;28;20050;-70
2023/03/02 01:27:29;;;;;;;51.95;24.70;;;4.70;99.90;;;;;;5097360;28;20031;-73
2023/03/02 01:29:55;;;;;;;52.10;24.50;;;4.60;99.90;;;;;;5098967;28;20541;-71
2023/03/02 01:32:21;;;;;;;59.50;27.80;;;4.60;99.90;;;;;;5094496;28;20062;-70
2023/03/02 01:34:46;;;;;;;57.28;27.65;;;4.60;99.90;;;;;;5095893;28;20032;-72
2023/03/02 01:37:12;;;;;;;53.30;26.45;;;4.60;99.90;;;;;;5098369;28;20034;-71
2023/03/02 01:39:37;;;;;;;49.45;23.08;;;4.70;99.90;;;;;;5109947;28;20080;-72
2023/03/02 01:42:03;;;;;;;49.88;23.65;;;4.60;99.90;;;;;;5080344;28;20028;-72
2023/03/02 01:44:39;;;;;;;52.28;24.75;;;4.60;99.90;;;;;;5103961;28;20039;-71
2023/03/02 01:47:27;;;;;;;45.55;22.48;;;4.60;99.90;;;;;;5084854;28;20036;-70
2023/03/02 01:49:58;;;;;;;47.92;22.85;;;4.50;99.90;;;;;;5109544;28;20016;-70
2023/03/02 01:52:24;;;;;;;53.08;23.80;;;4.50;99.90;;;;;;5098906;28;20096;-71
2023/03/02 01:54:53;;;;;;;51.65;23.25;;;4.50;99.90;;;;;;5106119;28;20086;-68
2023/03/02 01:57:23;;;;;;;49.25;23.63;;;4.50;99.90;;;;;;5110331;28;20186;-73
2023/03/02 01:59:54;;;;;;;46.92;21.88;;;4.50;99.90;;;;;;5105482;28;20092;-69
2023/03/02 02:02:20;;;;;;;42.35;21.13;;;4.50;99.90;;;;;;5098020;28;20081;-69
2023/03/02 02:04:47;;;;;;;43.50;21.52;;;4.40;99.90;;;;;;5106450;28;20114;-71
2023/03/02 02:07:12;;;;;;;41.75;21.58;;;4.40;99.90;;;;;;5111770;28;20023;-70
2023/03/02 02:09:43;;;;;;;43.72;20.58;;;4.30;99.90;;;;;;5114851;28;20039;-69
2023/03/02 02:12:14;;;;;;;38.90;17.67;;;4.20;99.90;;;;;;5101967;28;20032;-71
2023/03/02 02:14:40;;;;;;;47.03;22.63;;;4.10;99.90;;;;;;5112502;28;20032;-72
2023/03/02 02:17:07;;;;;;;45.13;20.50;;;4.10;99.90;;;;;;5096685;28;20463;-70
2023/03/02 02:19:57;;;;;;;49.55;22.13;;;4.00;99.90;;;;;;5104081;28;20028;-68
2023/03/02 02:22:35;;;;;;;47.55;22.15;;;4.00;99.90;;;;;;5099322;28;20028;-73
2023/03/02 02:25:08;;;;;;;49.92;23.05;;;4.10;99.90;;;;;;5083192;28;20502;-71
2023/03/02 02:27:34;;;;;;;48.70;21.70;;;4.10;99.90;;;;;;5112831;28;20027;-72
2023/03/02 02:30:03;;;;;;;46.90;21.92;;;4.10;99.90;;;;;;5113222;28;20048;-72
2023/03/02 02:32:32;;;;;;;43.20;21.40;;;4.10;99.90;;;;;;5097134;28;20020;-69
2023/03/02 02:35:01;;;;;;;46.03;21.92;;;4.10;99.90;;;;;;5093524;28;20039;-73
2023/03/02 02:37:38;;;;;;;41.47;19.50;;;4.10;99.90;;;;;;5093899;28;20054;-70
2023/03/02 02:40:10;;;;;;;44.55;20.55;;;4.10;99.90;;;;;;5094111;28;20027;-70
2023/03/02 02:42:40;;;;;;;43.33;21.15;;;4.20;99.90;;;;;;5095858;28;20036;-69
2023/03/02 02:45:21;;;;;;;40.70;19.63;;;4.10;99.90;;;;;;5097590;28;20127;-70
2023/03/02 02:47:48;;;;;;;45.05;21.33;;;4.10;99.90;;;;;;5096482;28;20559;-74
2023/03/02 02:50:21;;;;;;;43.15;19.40;;;4.10;99.90;;;;;;5094893;28;20119;-70
2023/03/02 02:52:54;;;;;;;42.60;19.63;;;4.10;99.90;;;;;;5095660;28;20077;-73
2023/03/02 02:55:22;;;;;;;39.03;18.33;;;4.10;99.90;;;;;;5097721;28;20043;-70
2023/03/02 02:57:53;;;;;;;42.80;21.52;;;4.10;99.90;;;;;;5093935;28;20059;-68
2023/03/02 03:00:20;;;;;;;43.33;19.92;;;4.10;99.90;;;;;;5094497;28;20097;-72
2023/03/02 03:02:59;;;;;;;42.83;20.40;;;4.10;99.90;;;;;;5105641;28;20024;-70
2023/03/02 03:05:25;;;;;;;41.92;20.33;;;4.10;99.90;;;;;;5107637;28;20071;-71
2023/03/02 03:07:50;;;;;;;38.72;18.48;;;4.10;99.90;;;;;;5096531;28;20381;-72
2023/03/02 03:10:28;;;;;;;43.60;21.25;;;4.10;99.90;;;;;;5109116;28;20059;-70
2023/03/02 03:12:55;;;;;;;37.85;17.98;;;4.10;99.90;;;;;;5097200;28;20023;-69
2023/03/02 03:15:21;;;;;;;41.53;19.65;;;4.10;99.90;;;;;;5108256;28;20028;-72
2023/03/02 03:17:54;;;;;;;43.30;20.05;;;4.10;99.90;;;;;;5099587;28;20038;-70
2023/03/02 03:20:22;;;;;;;41.35;19.58;;;4.10;99.90;;;;;;5098921;28;20024;-69
2023/03/02 03:22:47;;;;;;;41.55;18.83;;;4.00;99.90;;;;;;5110735;28;20134;-69
2023/03/02 03:25:14;;;;;;;37.05;17.58;;;4.00;99.90;;;;;;5098467;28;20040;-73
2023/03/02 03:27:50;;;;;;;38.55;17.80;;;3.90;99.90;;;;;;5105411;28;20461;-69
2023/03/02 03:30:16;;;;;;;35.03;16.63;;;3.90;99.90;;;;;;5093916;28;20044;-71
2023/03/02 03:32:42;;;;;;;41.00;19.35;;;3.90;99.90;;;;;;5094129;28;20035;-74
2023/03/02 03:35:10;;;;;;;36.60;17.65;;;3.90;99.90;;;;;;5097297;28;20115;-73
2023/03/02 03:37:37;;;;;;;40.63;18.10;;;3.90;99.90;;;;;;5081690;28;20077;-70
2023/03/02 03:40:04;;;;;;;34.05;16.55;;;3.80;99.90;;;;;;5095288;28;20024;-73
2023/03/02 03:42:30;;;;;;;37.60;18.55;;;3.80;99.90;;;;;;5104575;28;20035;-72
2023/03/02 03:44:56;;;;;;;41.90;18.35;;;3.80;99.90;;;;;;5097149;28;20040;-72
2023/03/02 03:47:22;;;;;;;38.13;17.95;;;3.80;99.90;;;;;;5100385;28;20038;-71
2023/03/02 03:49:48;;;;;;;38.40;18.48;;;3.80;99.90;;;;;;5108906;28;20126;-71
2023/03/02 03:52:13;;;;;;;41.35;19.63;;;3.80;99.90;;;;;;5099699;28;20032;-69
2023/03/02 03:54:39;;;;;;;39.10;18.00;;;3.80;99.90;;;;;;5098037;28;20032;-70
2023/03/02 03:57:05;;;;;;;39.80;19.80;;;3.80;99.90;;;;;;5109493;28;20490;-70
2023/03/02 03:59:32;;;;;;;36.92;17.00;;;3.80;99.90;;;;;;5100912;28;20039;-71
2023/03/02 04:01:59;;;;;;;37.40;18.42;;;3.80;99.90;;;;;;5097710;28;20024;-70
2023/03/02 04:04:29;;;;;;;39.30;18.35;;;3.80;99.90;;;;;;5084266;28;20094;-71
2023/03/02 04:06:55;;;;;;;40.90;20.33;;;3.90;99.90;;;;;;5109767;28;20077;-74
2023/03/02 04:09:22;;;;;;;39.45;17.52;;;3.90;99.90;;;;;;5092615;28;20380;-70
2023/03/02 04:11:50;;;;;;;37.75;18.95;;;3.90;99.90;;;;;;5103572;28;20035;-72
2023/03/02 04:14:17;;;;;;;30.23;14.63;;;4.00;99.90;;;;;;5097275;28;20106;-69
2023/03/02 04:16:43;;;;;;;38.53;18.25;;;4.00;99.90;;;;;;5090248;28;20035;-71
2023/03/02 04:19:10;;;;;;;32.33;15.60;;;4.00;99.90;;;;;;5093349;28;20026;-71
2023/03/02 04:21:41;;;;;;;50.90;18.13;;;4.00;99.90;;;;;;5101524;28;20066;-69
2023/03/02 04:24:08;;;;;;;37.88;17.17;;;4.00;99.90;;;;;;5100617;28;20054;-72
2023/03/02 04:26:35;;;;;;;31.95;15.65;;;4.00;99.90;;;;;;5093346;28;20105;-69
2023/03/02 04:29:02;;;;;;;36.20;16.60;;;4.00;99.90;;;;;;5108930;28;20059;-69
2023/03/02 04:31:27;;;;;;;34.42;17.33;;;4.00;99.90;;;;;;5100399;28;20031;-68
2023/03/02 04:33:53;;;;;;;31.10;15.63;;;4.00;99.90;;;;;;5102094;28;20040;-72
2023/03/02 04:36:18;;;;;;;31.45;15.05;;;4.00;99.90;;;;;;5093677;28;20024;-69
2023/03/02 04:38:45;;;;;;;35.25;17.45;;;4.00;99.90;;;;;;5109370;28;20032;-70
2023/03/02 04:41:11;;;;;;;41.17;16.70;;;4.00;99.90;;;;;;5097453;28;20480;-73
2023/03/02 04:43:36;;;;;;;33.60;15.48;;;4.00;99.90;;;;;;5101148;28;20063;-70
2023/03/02 04:46:02;;;;;;;34.38;17.27;;;4.00;99.90;;;;;;5095094;28;20111;-69
2023/03/02 04:48:28;;;;;;;38.83;16.17;;;4.00;99.90;;;;;;5108159;28;20151;-67
2023/03/02 04:50:53;;;;;;;33.30;15.70;;;4.00;99.90;;;;;;5092211;28;20024;-70
2023/03/02 04:53:19;;;;;;;35.63;15.45;;;4.00;99.90;;;;;;5093871;28;20036;-74
2023/03/02 04:55:46;;;;;;;34.25;17.00;;;3.90;99.90;;;;;;5108889;28;20016;-71
2023/03/02 04:58:11;;;;;;;33.42;16.17;;;3.90;99.90;;;;;;5112900;28;20482;-72
2023/03/02 05:00:37;;;;;;;34.45;16.35;;;3.90;99.90;;;;;;5091833;28;20028;-71
2023/03/02 05:03:04;;;;;;;35.05;16.00;;;3.90;99.90;;;;;;5092041;28;20028;-69
2023/03/02 05:05:30;;;;;;;36.67;15.70;;;3.90;99.90;;;;;;5091820;28;20383;-70
2023/03/02 05:07:57;;;;;;;34.85;16.70;;;3.80;99.90;;;;;;5104155;28;20031;-70
2023/03/02 05:10:26;;;;;;;35.65;17.85;;;3.80;99.90;;;;;;5096846;28;20514;-70
2023/03/02 05:13:01;;;;;;;39.17;18.63;;;3.80;99.90;;;;;;5091279;28;20031;-70
2023/03/02 05:15:40;;;;;;;41.90;19.05;;;3.80;99.90;;;;;;5093181;28;20020;-73
2023/03/02 05:18:08;;;;;;;34.10;16.15;;;3.80;99.90;;;;;;5091137;28;20029;-70
2023/03/02 05:20:34;;;;;;;34.22;16.63;;;3.90;99.90;;;;;;5101460;28;20017;-70
2023/03/02 05:23:03;;;;;;;34.70;16.20;;;3.80;99.90;;;;;;5106299;28;20026;-72
2023/03/02 05:25:31;;;;;;;37.20;17.52;;;3.80;99.90;;;;;;5092511;28;20035;-68
2023/03/02 05:27:56;;;;;;;37.17;18.65;;;3.70;99.90;;;;;;5103593;28;20067;-72
2023/03/02 05:30:23;;;;;;;36.88;18.52;;;3.70;99.90;;;;;;5096448;28;20467;-72
2023/03/02 05:32:50;;;;;;;38.65;19.10;;;3.70;99.90;;;;;;5092506;28;20038;-71
2023/03/02 05:35:16;;;;;;;36.35;16.50;;;3.60;99.90;;;;;;5105877;28;20024;-72
2023/03/02 05:37:43;;;;;;;34.55;15.45;;;3.70;99.90;;;;;;5100961;28;20099;-70
2023/03/02 05:40:14;;;;;;;38.60;15.95;;;3.60;99.90;;;;;;5099237;28;20036;-73
2023/03/02 05:42:41;;;;;;;36.55;16.58;;;3.60;99.90;;;;;;5092484;28;20028;-71
2023/03/02 05:45:12;;;;;;;38.22;17.45;;;3.60;99.90;;;;;;5092276;28;20102;-73
2023/03/02 05:47:37;;;;;;;42.15;19.35;;;3.60;99.90;;;;;;5100326;28;20039;-70
2023/03/02 05:50:03;;;;;;;40.15;19.58;;;3.60;99.90;;;;;;5099921;28;20085;-70
2023/03/02 05:52:29;;;;;;;36.72;18.38;;;3.60;99.90;;;;;;5091386;28;20032;-70
2023/03/02 05:54:54;;;;;;;40.85;18.58;;;3.50;99.90;;;;;;5109107;28;20478;-72
2023/03/02 05:57:20;;;;;;;43.65;19.67;;;3.50;99.90;;;;;;5091004;28;20024;-70
2023/03/02 05:59:46;;;;;;;39.67;18.48;;;3.50;99.90;;;;;;5102332;28;20031;-70
2023/03/02 06:02:12;;;;;;;41.00;20.27;;;3.50;99.90;;;;;;5094158;28;20021;-69
2023/03/02 06:04:41;;;;;;;44.30;19.33;;;3.40;99.90;;;;;;5091428;28;20043;-71
2023/03/02 06:07:10;;;;;;;42.28;19.85;;;3.40;99.90;;;;;;5098870;28;20032;-70
2023/03/02 06:09:39;;;;;;;40.97;21.02;;;3.40;99.90;;;;;;5094268;28;20855;-70
2023/03/02 06:12:06;;;;;;;43.65;19.38;;;3.40;99.90;;;;;;5079990;28;20544;-69
2023/03/02 06:14:33;;;;;;;43.42;20.58;;;3.40;99.90;;;;;;5090774;28;20032;-69
2023/03/02 06:16:59;;;;;;;44.13;21.75;;;3.40;99.90;;;;;;5085856;28;20039;-68
2023/03/02 06:19:24;;;;;;;43.00;19.58;;;3.40;99.90;;;;;;5069431;28;20040;-71
2023/03/02 06:21:50;;;;;;;46.38;21.33;;;3.40;99.90;;;;;;5090633;28;20039;-72
2023/03/02 06:24:16;;;;;;;46.53;22.75;;;3.40;99.90;;;;;;5092877;28;20047;-69
2023/03/02 06:26:41;;;;;;;41.05;19.85;;;3.40;99.90;;;;;;5096851;28;20032;-72
2023/03/02 06:29:07;;;;;;;41.53;20.00;;;3.50;99.90;;;;;;5080122;28;20506;-73
2023/03/02 06:31:33;;;;;;;42.15;18.20;;;3.60;99.90;;;;;;5093578;28;20157;-73
2023/03/02 06:33:59;;;;;;;45.80;19.98;;;3.60;99.90;;;;;;5095221;28;20024;-72
2023/03/02 06:36:26;;;;;;;41.22;20.77;;;3.70;99.90;;;;;;5106161;28;20028;-70
2023/03/02 06:38:52;;;;;;;45.88;21.02;;;3.70;99.90;;;;;;5099627;28;20464;-72
2023/03/02 06:41:18;;;;;;;44.15;19.88;;;3.70;99.90;;;;;;5090272;28;20676;-71
2023/03/02 06:43:43;;;;;;;39.20;18.15;;;3.80;99.90;;;;;;5109939;28;20032;-71
2023/03/02 06:46:09;;;;;;;38.50;16.63;;;3.80;99.90;;;;;;5099071;28;20032;-68
2023/03/02 06:48:34;;;;;;;42.28;19.15;;;3.80;99.90;;;;;;5099841;28;20103;-72
2023/03/02 06:51:04;;;;;;;42.63;21.25;;;3.90;99.90;;;;;;5108588;28;20495;-71
2023/03/02 06:53:30;;;;;;;39.95;18.77;;;3.90;99.90;;;;;;5079988;28;20031;-73
2023/03/02 06:55:55;;;;;;;38.03;18.80;;;3.90;99.90;;;;;;5082803;28;20026;-73
2023/03/02 06:58:21;;;;;;;39.72;18.80;;;3.90;99.90;;;;;;5097816;28;20028;-73
2023/03/02 07:00:46;;;;;;;40.28;18.33;;;4.00;99.90;;;;;;5097358;28;20097;-69
2023/03/02 07:03:12;;;;;;;39.17;18.15;;;4.00;99.90;;;;;;5092735;28;20035;-72
2023/03/02 07:05:37;;;;;;;36.22;16.40;;;4.00;99.90;;;;;;5106434;28;20035;-72
2023/03/02 07:08:03;;;;;;;41.65;19.50;;;4.00;99.90;;;;;;5102022;28;20051;-71
2023/03/02 07:10:29;;;;;;;35.10;16.42;;;4.00;99.90;;;;;;5102957;28;20024;-73
2023/03/02 07:12:55;;;;;;;41.88;18.60;;;4.00;99.90;;;;;;5108620;28;20460;-73
2023/03/02 07:15:20;;;;;;;41.67;18.63;;;4.00;99.90;;;;;;5094111;28;20110;-69
2023/03/02 07:17:46;;;;;;;40.33;18.70;;;4.10;99.90;;;;;;5095003;28;20028;-69
2023/03/02 07:20:14;;;;;;;38.00;17.52;;;4.10;99.90;;;;;;5109880;28;20103;-71
2023/03/02 07:22:40;;;;;;;38.88;17.52;;;4.10;99.90;;;;;;5092244;28;20024;-71
2023/03/02 07:25:07;;;;;;;36.15;17.15;;;4.10;99.90;;;;;;5098791;28;20093;-71
2023/03/02 07:27:33;;;;;;;34.30;14.55;;;4.10;99.90;;;;;;5092088;28;20472;-71
2023/03/02 07:29:58;;;;;;;36.10;17.45;;;4.20;99.90;;;;;;5106437;28;20051;-70
2023/03/02 07:32:24;;;;;;;36.08;16.00;;;4.20;99.90;;;;;;5095296;28;20077;-72
2023/03/02 07:34:50;;;;;;;37.75;17.77;;;4.10;99.90;;;;;;5097413;28;20108;-70
2023/03/02 07:37:15;;;;;;;38.22;17.55;;;4.10;99.90;;;;;;5098593;28;20027;-69
2023/03/02 07:39:41;;;;;;;34.50;15.68;;;4.10;99.90;;;;;;5096087;28;20028;-74
2023/03/02 07:42:11;;;;;;;34.22;15.82;;;4.10;99.90;;;;;;5103772;28;20107;-69
2023/03/02 07:44:37;;;;;;;33.05;15.35;;;4.10;99.90;;;;;;5102098;28;20043;-71
2023/03/02 07:47:03;;;;;;;37.95;15.73;;;4.20;99.90;;;;;;5098976;28;20028;-74
2023/03/02 07:49:28;;;;;;;36.58;14.60;;;4.30;99.90;;;;;;5083071;28;20135;-72
2023/03/02 07:51:54;;;;;;;36.88;16.70;;;4.40;99.90;;;;;;5093817;28;20111;-73
2023/03/02 07:54:20;;;;;;;35.90;16.70;;;4.40;99.90;;;;;;5101891;28;20375;-73
2023/03/02 07:56:45;;;;;;;29.67;13.63;;;4.50;99.90;;;;;;5103373;28;20035;-70
2023/03/02 07:59:12;;;;;;;35.88;16.40;;;4.50;99.90;;;;;;5096753;28;20039;-70
2023/03/02 08:01:38;;;;;;;32.03;14.70;;;4.50;99.90;;;;;;5095163;28;20032;-70
2023/03/02 08:04:03;;;;;;;36.83;17.40;;;4.40;99.90;;;;;;5100080;28;20420;-69
2023/03/02 08:06:29;;;;;;;37.03;16.35;;;4.50;99.90;;;;;;5109437;28;20515;-71
2023/03/02 08:08:55;;;;;;;32.70;15.82;;;4.60;99.90;;;;;;5094826;28;20474;-72
2023/03/02 08:11:21;;;;;;;33.13;15.52;;;4.70;99.90;;;;;;5100876;28;20084;-71
2023/03/02 08:13:47;;;;;;;35.58;15.52;;;4.90;99.90;;;;;;5102750;28;20099;-72
2023/03/02 08:16:14;;;;;;;55.95;21.60;;;5.00;99.90;;;;;;5083176;28;20057;-70
2023/03/02 08:18:40;;;;;;;36.47;15.57;;;5.10;99.90;;;;;;5099425;28;20159;-74
2023/03/02 08:21:17;;;;;;;35.35;15.50;;;5.20;99.90;;;;;;5099370;28;20491;-71
2023/03/02 08:23:43;;;;;;;31.77;14.27;;;5.40;99.90;;;;;;5101835;28;20047;-72
2023/03/02 08:26:09;;;;;;;35.72;17.13;;;5.60;99.90;;;;;;5107614;28;20154;-73
2023/03/02 08:28:34;;;;;;;29.67;14.40;;;5.70;99.90;;;;;;5100148;28;20131;-71
2023/03/02 08:31:01;;;;;;;27.73;12.73;;;5.90;99.90;;;;;;5094555;28;20121;-72
2023/03/02 08:33:29;;;;;;;30.23;13.98;;;6.00;99.90;;;;;;5088469;28;20035;-71
2023/03/02 08:36:16;;;;;;;30.15;13.73;;;6.10;99.90;;;;;;5092022;28;20036;-71
2023/03/02 08:38:42;;;;;;;31.77;12.77;;;6.30;99.90;;;;;;5094618;28;20024;-72
2023/03/02 08:41:13;;;;;;;30.40;12.40;;;6.40;99.90;;;;;;5098975;28;20040;-69
2023/03/02 08:43:38;;;;;;;31.58;14.43;;;6.50;99.90;;;;;;5104643;28;20036;-70
2023/03/02 08:46:04;;;;;;;28.33;13.77;;;6.70;99.90;;;;;;5097453;28;20404;-70
2023/03/02 08:48:30;;;;;;;28.45;11.98;;;7.00;99.90;;;;;;5094166;28;20031;-70
2023/03/02 08:50:58;;;;;;;29.05;13.30;;;7.50;99.90;;;;;;5096873;28;20040;-69
2023/03/02 08:53:24;;;;;;;25.52;11.50;;;8.10;99.90;;;;;;5093526;28;20038;-69
2023/03/02 08:55:50;;;;;;;26.40;12.13;;;8.60;99.90;;;;;;5093093;28;20085;-70
2023/03/02 08:58:15;;;;;;;28.00;12.20;;;8.60;99.90;;;;;;5100678;28;20024;-73
2023/03/02 09:00:42;;;;;;;28.00;12.45;;;8.40;99.90;;;;;;5088089;28;20096;-70
2023/03/02 09:03:07;;;;;;;23.60;11.20;;;8.70;99.90;;;;;;5099594;28;20395;-74
2023/03/02 09:05:33;;;;;;;23.92;10.57;;;9.40;99.90;;;;;;5082535;28;20026;-71
2023/03/02 09:07:58;;;;;;;23.35;11.23;;;10.00;99.90;;;;;;5099687;28;20041;-72
2023/03/02 09:10:24;;;;;;;23.67;11.63;;;10.90;99.90;;;;;;5105119;28;20513;-70
2023/03/02 09:12:51;;;;;;;24.42;12.18;;;11.40;99.90;;;;;;5097475;28;20382;-73
2023/03/02 09:15:16;;;;;;;23.92;12.10;;;12.00;99.90;;;;;;5085401;28;20081;-70
2023/03/02 09:17:42;;;;;;;23.73;10.50;;;12.60;99.90;;;;;;5101009;28;20032;-71
2023/03/02 09:20:08;;;;;;;23.50;12.38;;;13.00;99.70;;;;;;5090683;28;20040;-74
2023/03/02 09:22:34;;;;;;;25.23;12.70;;;13.30;99.40;;;;;;5091627;28;20029;-73
2023/03/02 09:25:01;;;;;;;24.77;11.70;;;13.60;98.60;;;;;;5103048;28;20043;-71
2023/03/02 09:27:36;;;;;;;24.95;11.57;;;13.70;98.40;;;;;;5100600;28;20135;-73
2023/03/02 09:30:06;;;;;;;24.77;12.52;;;14.00;97.80;;;;;;5091163;28;20522;-73
2023/03/02 09:32:32;;;;;;;24.00;11.57;;;14.00;97.80;;;;;;5091577;28;20038;-70
2023/03/02 09:34:57;;;;;;;22.92;11.68;;;14.50;97.10;;;;;;5074889;28;20040;-72
2023/03/02 09:37:23;;;;;;;22.75;11.45;;;14.70;96.50;;;;;;5100343;28;20035;-75
2023/03/02 09:39:48;;;;;;;23.33;11.25;;;14.70;96.30;;;;;;5097089;28;20035;-70
2023/03/02 09:42:26;;;;;;;22.60;11.50;;;14.50;96.20;;;;;;5096943;28;20024;-72
2023/03/02 09:45:23;;;;;;;22.92;11.35;;;14.40;95.90;;;;;;5090625;28;20032;-72
2023/03/02 09:48:23;;;;;;;23.05;10.82;;;14.10;96.10;;;;;;5099794;28;20028;-75
2023/03/02 09:51:13;;;;;;;24.77;12.75;;;14.10;96.10;;;;;;5077734;28;20032;-72
2023/03/02 09:53:50;;;;;;;23.08;11.25;;;13.80;96.60;;;;;;5103000;28;20060;-69
2023/03/02 09:56:18;;;;;;;23.40;11.70;;;13.50;96.90;;;;;;5094894;28;20115;-72
2023/03/02 09:59:01;;;;;;;21.55;11.30;;;13.50;97.20;;;;;;5062067;28;20462;-72
2023/03/02 10:02:02;;;;;;;24.40;11.32;;;13.60;96.90;;;;;;5096479;28;20459;-72
2023/03/02 10:04:43;;;;;;;23.25;11.95;;;13.40;97.10;;;;;;5075249;28;20083;-72
2023/03/02 10:07:21;;;;;;;24.95;11.93;;;13.40;96.80;;;;;;5102415;28;20077;-73
2023/03/02 10:09:47;;;;;;;25.40;11.57;;;13.10;97.20;;;;;;5091833;28;20051;-70
2023/03/02 10:12:40;;;;;;;25.90;13.18;;;12.50;97.70;;;;;;5089706;28;20027;-70
2023/03/02 10:15:38;;;;;;;25.02;11.90;;;11.70;99.00;;;;;;5092000;28;20115;-72
2023/03/02 10:18:26;;;;;;;26.27;12.75;;;10.80;99.90;;;;;;5065088;28;20097;-72
2023/03/02 10:21:01;;;;;;;26.05;11.07;;;10.30;99.90;;;;;;5099392;28;20455;-75
2023/03/02 10:23:52;;;;;;;23.25;11.93;;;10.60;99.90;;;;;;5099891;28;20023;-70
2023/03/02 10:26:47;;;;;;;23.85;11.38;;;11.40;99.90;;;;;;5095219;28;20024;-72
2023/03/02 10:29:39;;;;;;;25.63;12.25;;;12.20;99.90;;;;;;5097147;28;20127;-71
2023/03/02 10:32:20;;;;;;;24.27;12.05;;;12.70;99.40;;;;;;5098250;28;20042;-71
2023/03/02 10:34:46;;;;;;;27.75;12.68;;;12.50;99.10;;;;;;5098115;28;20030;-72
2023/03/02 10:37:20;;;;;;;25.83;11.32;;;12.10;99.90;;;;;;5104446;28;20447;-73
2023/03/02 10:39:46;;;;;;;26.25;12.95;;;11.60;99.90;;;;;;5102081;28;20055;-71
2023/03/02 10:42:26;;;;;;;24.02;11.35;;;11.20;99.90;;;;;;5096456;28;20075;-74
2023/03/02 10:44:55;;;;;;;24.50;13.10;;;11.20;99.90;;;;;;5099480;28;20075;-74
2023/03/02 10:47:26;;;;;;;24.73;11.88;;;11.10;99.90;;;;;;5107059;28;20080;-70
2023/03/02 10:49:54;;;;;;;26.00;12.70;;;11.10;99.90;;;;;;5101101;28;20011;-72
2023/03/02 10:52:25;;;;;;;24.70;12.43;;;11.50;99.90;;;;;;5096811;28;20093;-74
2023/03/02 10:55:13;;;;;;;23.70;11.85;;;11.90;99.90;;;;;;5103630;28;20099;-72
2023/03/02 10:57:43;;;;;;;25.10;11.90;;;12.80;99.40;;;;;;5103438;28;20468;-73
2023/03/02 11:00:17;;;;;;;25.90;12.73;;;13.60;98.50;;;;;;5099277;28;20031;-73
2023/03/02 11:02:55;;;;;;;25.40;12.38;;;14.40;97.50;;;;;;5092483;28;20028;-73
2023/03/02 11:05:32;;;;;;;25.63;12.40;;;15.10;96.50;;;;;;5103290;28;20044;-72
2023/03/02 11:07:58;;;;;;;22.85;10.32;;;15.50;95.70;;;;;;5090357;28;20031;-70
2023/03/02 11:10:39;;;;;;;24.58;12.20;;;15.40;95.00;;;;;;5094795;28;20028;-71
2023/03/02 11:13:42;;;;;;;23.70;11.45;;;14.80;95.60;;;;;;5087636;28;20035;-71
2023/03/02 11:16:17;;;;;;;26.10;12.85;;;14.30;96.00;;;;;;5086917;28;20510;-70
2023/03/02 11:18:48;;;;;;;24.45;13.20;;;14.20;96.40;;;;;;5078826;28;20031;-70
2023/03/02 11:21:21;;;;;;;24.53;11.53;;;14.30;96.30;;;;;;5095788;28;20020;-71
2023/03/02 11:24:11;;;;;;;21.70;10.88;;;14.10;96.20;;;;;;5100534;28;20040;-70
2023/03/02 11:26:46;;;;;;;24.52;12.32;;;14.20;96.00;;;;;;5095893;28;20034;-71
2023/03/02 11:29:44;;;;;;;23.50;12.38;;;14.20;96.20;;;;;;5098347;28;20052;-70
2023/03/02 11:32:29;;;;;;;24.77;13.00;;;14.40;96.20;;;;;;5073658;28;20387;-69
2023/03/02 11:35:05;;;;;;;24.10;10.90;;;14.80;96.00;;;;;;5093683;28;20434;-70
2023/03/02 11:37:51;;;;;;;23.83;11.70;;;15.40;95.50;;;;;;5091608;28;20028;-70
2023/03/02 11:40:35;;;;;;;27.02;13.63;;;15.60;95.20;;;;;;5098593;28;20036;-73
2023/03/02 11:43:04;;;;;;;29.75;15.35;;;15.50;95.30;;;;;;5078444;28;20028;-71
2023/03/02 11:45:35;;;;;;;25.23;13.75;;;15.20;95.50;;;;;;5093995;28;20055;-72
2023/03/02 11:48:22;;;;;;;23.90;11.57;;;14.90;95.80;;;;;;5109300;28;20023;-72
2023/03/02 11:50:58;;;;;;;26.00;11.43;;;14.70;95.90;;;;;;5089215;28;20102;-71
2023/03/02 11:53:50;;;;;;;26.42;13.95;;;14.40;96.30;;;;;;5097278;28;20024;-69
2023/03/02 11:56:17;;;;;;;22.88;11.02;;;14.30;96.30;;;;;;5062760;28;20096;-73
2023/03/02 11:58:49;;;;;;;24.90;11.05;;;14.40;95.90;;;;;;5090626;28;20039;-70
2023/03/02 12:01:21;;;;;;;22.65;12.15;;;14.30;95.90;;;;;;5092228;28;20034;-73
2023/03/02 12:03:46;;;;;;;23.70;12.38;;;14.00;96.10;;;;;;5100646;28;20039;-69
2023/03/02 12:06:21;;;;;;;23.85;11.30;;;14.10;96.40;;;;;;5079555;28;20040;-72
2023/03/02 12:09:07;;;;;;;25.73;11.73;;;14.20;96.40;;;;;;5096671;28;20024;-73
2023/03/02 12:11:37;;;;;;;24.73;10.77;;;14.30;96.20;;;;;;5080752;28;20063;-71
2023/03/02 12:14:23;;;;;;;21.65;10.38;;;14.30;95.70;;;;;;5088173;28;20032;-74
2023/03/02 12:16:49;;;;;;;22.77;10.70;;;14.30;95.40;;;;;;5092861;28;20451;-74
2023/03/02 12:19:15;;;;;;;23.15;11.07;;;14.40;95.40;;;;;;5089769;28;20085;-73
2023/03/02 12:22:01;;;;;;;23.77;12.30;;;14.70;95.00;;;;;;5094480;28;20020;-74
2023/03/02 12:24:30;;;;;;;25.33;12.32;;;14.90;95.00;;;;;;5093084;28;20047;-73
2023/03/02 12:27:15;;;;;;;24.65;11.65;;;15.10;95.00;;;;;;5094567;28;20539;-71
2023/03/02 12:29:43;;;;;;;23.30;11.52;;;15.30;95.10;;;;;;5090827;28;20119;-70
2023/03/02 12:32:17;;;;;;;23.48;10.10;;;15.50;94.90;;;;;;5069997;28;20036;-72
2023/03/02 12:34:51;;;;;;;23.20;12.25;;;15.50;94.50;;;;;;5089631;28;20089;-72
2023/03/02 12:37:23;;;;;;;24.33;10.95;;;15.10;94.90;;;;;;5093857;28;20376;-74
2023/03/02 12:40:15;;;;;;;24.50;11.10;;;15.10;94.90;;;;;;5089357;28;20353;-71
2023/03/02 12:42:40;;;;;;;26.08;12.32;;;14.80;95.00;;;;;;5091306;28;20020;-70
2023/03/02 12:45:27;;;;;;;25.88;12.30;;;14.60;95.40;;;;;;5090024;28;20509;-72
2023/03/02 12:48:04;;;;;;;24.13;11.52;;;14.70;95.20;;;;;;5089476;28;20388;-70
2023/03/02 12:50:35;;;;;;;24.65;11.20;;;14.90;94.90;;;;;;5087573;28;20428;-69